Terminal Aerodrome Forecast
Issued by NWS

Home | Current Version | Previous Version | Text Only | Print | Product List | Glossary On
Versions: 1 2 3 4 5 6 7 8 9 10 11 12 13 14 15 16 17 18 19 20 21 22 23 24 25 26 27 28 29 30 31 32 33 34 35 36
000
FTUS46 KPDT 181529 AAB
TAFYKM
TAF AMD
KYKM 181529Z 1815/1912 27003KT 3SM -SN BR OVC015
      TEMPO 1815/1819 1SM -SN BR BKN009 OVC015
     FM182100 VRB02KT 6SM BR OVC015
     FM190200 VRB02KT 4SM BR OVC012
     FM190700 VRB02KT 2SM BR OVC009=

USA.gov is the U.S. government's official web portal to all federal, state and local government web resources and services.